createdAt,value
2022-07-28T00:02:29.206Z,98604.53
2022-07-28T00:07:31.169Z,98592.59
2022-07-28T00:12:33.397Z,98597.25
2022-07-28T00:17:35.554Z,98609.31
2022-07-28T00:22:44.780Z,98600.03
2022-07-28T00:27:46.584Z,98595.78
2022-07-28T00:32:48.439Z,98597.78
2022-07-28T00:37:50.408Z,98591.94
2022-07-28T00:42:53.466Z,98594.97
2022-07-28T00:47:55.310Z,98597.38
2022-07-28T00:52:58.305Z,98590.91
2022-07-28T00:58:00.939Z,98597.56
2022-07-28T01:03:05.373Z,98587.84
2022-07-28T01:08:18.238Z,98587.63
2022-07-28T01:13:30.081Z,98571.69
2022-07-28T01:19:12.802Z,98577.72
2022-07-28T01:24:40.714Z,98578.50
2022-07-28T01:30:06.467Z,98590.38
2022-07-28T01:35:23.528Z,98586.72
2022-07-28T01:40:29.713Z,98587.50
2022-07-28T01:45:33.946Z,98585.88
2022-07-28T01:50:37.930Z,98587.25
2022-07-28T01:55:42.675Z,98587.66
2022-07-28T02:00:52.513Z,98586.41
2022-07-28T02:05:57.470Z,98581.94
2022-07-28T02:11:18.488Z,98568.63
2022-07-28T02:16:25.027Z,98568.81
2022-07-28T02:21:30.215Z,98576.22
2022-07-28T02:26:37.124Z,98578.41
2022-07-28T02:31:51.865Z,98569.75
2022-07-28T02:36:58.081Z,98574.19
2022-07-28T02:42:15.682Z,98584.84
2022-07-28T02:47:22.841Z,98587.03
2022-07-28T02:52:27.235Z,98595.47
2022-07-28T02:57:31.217Z,98592.19
2022-07-28T03:02:36.770Z,98600.63
2022-07-28T03:07:50.347Z,98591.91
2022-07-28T03:12:55.244Z,98595.28
2022-07-28T03:17:57.110Z,98599.09
2022-07-28T03:22:59.651Z,98599.25
2022-07-28T03:28:04.153Z,98609.66
2022-07-28T03:33:07.168Z,98612.66
2022-07-28T03:38:13.757Z,98626.13
2022-07-28T03:43:21.622Z,98628.09
2022-07-28T03:48:31.644Z,98630.09
2022-07-28T03:53:33.639Z,98632.09
2022-07-28T03:58:36.121Z,98629.28
2022-07-28T04:03:43.915Z,98634.16
2022-07-28T04:08:46.680Z,98639.81
2022-07-28T04:13:48.702Z,98630.59
2022-07-28T04:18:50.595Z,98632.66
2022-07-28T04:23:52.512Z,98629.47
2022-07-28T04:28:54.353Z,98630.72
2022-07-28T04:33:56.403Z,98631.94
2022-07-28T04:38:59.495Z,98633.56
2022-07-28T04:44:01.563Z,98639.25
2022-07-28T04:49:04.611Z,98645.34
2022-07-28T04:54:06.543Z,98634.72
2022-07-28T04:59:08.961Z,98626.53
2022-07-28T05:04:12.795Z,98628.63
2022-07-28T05:09:14.958Z,98639.59
2022-07-28T05:14:17.626Z,98636.25
2022-07-28T05:19:19.517Z,98637.13
2022-07-28T05:24:21.575Z,98638.38
2022-07-28T05:29:23.873Z,98623.72
2022-07-28T05:34:25.761Z,98624.38
2022-07-28T05:39:27.833Z,98630.25
2022-07-28T05:44:33.478Z,98622.59
2022-07-28T05:49:39.774Z,98632.47
2022-07-28T05:54:41.638Z,98637.13
2022-07-28T05:59:43.567Z,98645.63
2022-07-28T06:04:45.400Z,98644.69
2022-07-28T06:09:47.257Z,98650.38
2022-07-28T06:14:49.223Z,98644.13
2022-07-28T06:19:53.790Z,98641.72
2022-07-28T06:24:55.877Z,98649.59
2022-07-28T06:29:57.723Z,98646.75
2022-07-28T06:34:59.694Z,98655.44
2022-07-28T06:40:01.713Z,98649.97
2022-07-28T06:45:05.353Z,98650.56
2022-07-28T06:50:25.687Z,98642.50
2022-07-28T06:55:35.342Z,98655.00
2022-07-28T07:00:38.568Z,98657.41
2022-07-28T07:05:40.475Z,98652.94
2022-07-28T07:10:42.339Z,98647.03
2022-07-28T07:15:44.234Z,98640.94
2022-07-28T07:20:46.138Z,98643.53
2022-07-28T07:25:48.165Z,98633.34
2022-07-28T07:30:50.076Z,98647.50
2022-07-28T07:35:51.948Z,98649.28
2022-07-28T07:40:54.082Z,98647.13
2022-07-28T07:45:56.032Z,98644.75
2022-07-28T07:50:58.025Z,98645.03
2022-07-28T07:56:00.051Z,98642.41
2022-07-28T08:01:02.011Z,98648.44
2022-07-28T08:06:04.124Z,98647.41
2022-07-28T08:11:06.085Z,98644.69
2022-07-28T08:16:10.015Z,98644.03
2022-07-28T08:21:13.211Z,98646.91
2022-07-28T08:26:15.159Z,98635.97
2022-07-28T08:31:21.965Z,98633.41
2022-07-28T08:36:24.545Z,98646.81
2022-07-28T08:41:36.794Z,98633.88
2022-07-28T08:46:39.077Z,98635.41
2022-07-28T08:51:42.407Z,98626.25
2022-07-28T08:56:47.890Z,98625.47
2022-07-28T09:01:57.263Z,98625.06
2022-07-28T09:07:03.425Z,98629.69
2022-07-28T09:12:06.443Z,98609.72
2022-07-28T09:17:08.924Z,98615.56
2022-07-28T09:22:10.989Z,98621.56
2022-07-28T09:27:15.299Z,98623.38
2022-07-28T09:32:20.674Z,98618.22
2022-07-28T09:37:28.660Z,98628.69
2022-07-28T09:42:47.109Z,98612.34
2022-07-28T09:47:49.403Z,98612.47
2022-07-28T09:52:54.703Z,98611.63
2022-07-28T09:57:56.989Z,98610.34
2022-07-28T10:03:00.218Z,98607.00
2022-07-28T10:08:02.381Z,98589.56
2022-07-28T10:13:07.978Z,98591.50
2022-07-28T10:18:09.859Z,98592.50
2022-07-28T10:23:14.868Z,98580.38
2022-07-28T10:28:22.999Z,98582.06
2022-07-28T10:33:26.394Z,98576.06
2022-07-28T10:38:36.521Z,98563.13
2022-07-28T10:43:42.573Z,98563.38
2022-07-28T10:48:45.351Z,98549.25
2022-07-28T10:53:54.815Z,98557.34
2022-07-28T10:59:21.943Z,98559.69
2022-07-28T11:04:49.064Z,98559.53
2022-07-28T11:09:52.342Z,98548.50
2022-07-28T11:14:55.032Z,98539.28
2022-07-28T11:25:22.706Z,98529.88
2022-07-28T11:30:36.938Z,98523.59
2022-07-28T11:35:38.958Z,98533.78
2022-07-28T11:40:45.411Z,98519.28
2022-07-28T11:45:55.628Z,98514.56
2022-07-28T11:51:04.319Z,98510.03
2022-07-28T11:56:26.260Z,98506.22
2022-07-28T12:01:32.143Z,98504.63
2022-07-28T12:06:40.567Z,98495.13
2022-07-28T12:11:42.761Z,98496.53
2022-07-28T12:16:50.031Z,98475.06
2022-07-28T12:21:52.845Z,98484.91
2022-07-28T12:26:55.765Z,98473.50
2022-07-28T12:32:01.115Z,98472.69
2022-07-28T12:37:05.363Z,98471.34
2022-07-28T12:42:10.489Z,98478.06
2022-07-28T12:47:14.704Z,98460.84
2022-07-28T12:52:23.290Z,98466.75
2022-07-28T12:57:47.983Z,98470.25
2022-07-28T13:02:53.317Z,98467.50
2022-07-28T13:08:06.458Z,98453.19
2022-07-28T13:13:08.356Z,98444.41
2022-07-28T13:18:11.003Z,98447.38
2022-07-28T13:23:12.832Z,98423.56
2022-07-28T13:28:26.702Z,98434.22
2022-07-28T13:33:28.874Z,98428.88
2022-07-28T13:38:31.645Z,98418.75
2022-07-28T13:43:35.774Z,98421.94
2022-07-28T13:48:57.329Z,98414.84
2022-07-28T13:54:02.334Z,98415.13
2022-07-28T13:59:04.306Z,98410.13
2022-07-28T14:04:16.655Z,98409.91
2022-07-28T14:09:21.212Z,98405.19
2022-07-28T14:14:25.662Z,98406.06
2022-07-28T14:19:39.653Z,98403.94
2022-07-28T14:24:42.883Z,98391.97
2022-07-28T14:29:45.863Z,98395.44
2022-07-28T14:34:47.726Z,98392.81
2022-07-28T14:39:49.565Z,98386.22
2022-07-28T14:44:51.480Z,98381.25
2022-07-28T14:49:57.132Z,98385.03
2022-07-28T14:55:00.467Z,98383.47
2022-07-28T15:00:02.510Z,98376.31
2022-07-28T15:05:05.673Z,98367.00
2022-07-28T15:10:08.250Z,98363.84
2022-07-28T15:15:11.168Z,98362.53
2022-07-28T15:20:13.665Z,98370.72
2022-07-28T15:25:15.995Z,98360.28
2022-07-28T15:30:18.359Z,98363.66
2022-07-28T15:35:20.369Z,98353.25
2022-07-28T15:40:22.586Z,98358.53
2022-07-28T15:45:25.662Z,98349.47
2022-07-28T15:50:27.853Z,98353.44
2022-07-28T15:55:30.088Z,98338.81
2022-07-28T16:00:33.979Z,98340.66
2022-07-28T16:05:36.200Z,98340.63
2022-07-28T16:10:38.382Z,98348.53
2022-07-28T16:15:40.833Z,98334.97
2022-07-28T16:20:43.008Z,98339.75
2022-07-28T16:25:45.267Z,98345.81
2022-07-28T16:30:48.170Z,98326.69
2022-07-28T16:35:50.151Z,98338.84
2022-07-28T16:40:54.930Z,98328.97
2022-07-28T16:45:57.457Z,98341.41
2022-07-28T16:50:59.747Z,98335.78
2022-07-28T16:56:01.782Z,98333.09
2022-07-28T17:01:03.856Z,98336.50
2022-07-28T17:06:06.716Z,98342.31
2022-07-28T17:11:08.749Z,98341.47
2022-07-28T17:16:10.900Z,98356.53
2022-07-28T17:21:13.277Z,98351.44
2022-07-28T17:27:30.653Z,98355.13
2022-07-28T17:31:39.263Z,98354.53
2022-07-28T17:36:45.731Z,98351.81
2022-07-28T17:41:47.862Z,98358.94
2022-07-28T17:46:50.567Z,98360.72
2022-07-28T17:51:53.047Z,98356.38
2022-07-28T17:56:56.888Z,98360.59
2022-07-28T18:01:59.019Z,98363.41
2022-07-28T18:07:02.458Z,98364.97
2022-07-28T18:12:04.675Z,98363.31
2022-07-28T18:17:06.820Z,98364.53
2022-07-28T18:22:08.854Z,98367.91
2022-07-28T18:27:11.104Z,98363.59
2022-07-28T18:32:14.675Z,98363.78
2022-07-28T18:37:16.795Z,98366.03
2022-07-28T18:42:18.738Z,98359.88
2022-07-28T18:47:20.777Z,98361.91
2022-07-28T18:52:23.620Z,98368.38
2022-07-28T18:57:25.967Z,98367.50
2022-07-28T19:02:28.033Z,98372.97
2022-07-28T19:07:30.861Z,98375.22
2022-07-28T19:12:34.496Z,98385.97
2022-07-28T19:17:37.216Z,98391.66
2022-07-28T19:22:40.219Z,98391.25
2022-07-28T19:27:42.493Z,98404.63
2022-07-28T19:32:44.600Z,98421.94
2022-07-28T19:37:46.526Z,98414.28
2022-07-28T19:47:51.630Z,98409.06
2022-07-28T19:52:53.643Z,98416.25
2022-07-28T19:57:55.726Z,98422.38
2022-07-28T20:02:57.651Z,98432.50
2022-07-28T20:08:00.181Z,98434.47
2022-07-28T20:13:03.583Z,98428.84
2022-07-28T20:18:05.641Z,98430.81
2022-07-28T20:23:07.411Z,98436.19
2022-07-28T20:28:09.379Z,98436.31
2022-07-28T20:33:11.179Z,98439.28
2022-07-28T20:38:13.000Z,98435.72
2022-07-28T20:43:14.830Z,98444.34
2022-07-28T20:48:16.628Z,98447.22
2022-07-28T20:53:18.928Z,98445.59
2022-07-28T20:58:21.076Z,98444.44
2022-07-28T21:03:23.062Z,98448.00
2022-07-28T21:08:25.029Z,98452.03
2022-07-28T21:13:26.922Z,98454.19
2022-07-28T21:18:28.896Z,98437.19
2022-07-28T21:23:55.679Z,98448.66
2022-07-28T21:34:15.348Z,98447.94
2022-07-28T21:39:17.736Z,98450.44
2022-07-28T21:44:22.881Z,98443.41
2022-07-28T21:49:26.398Z,98439.84
2022-07-28T21:54:28.446Z,98456.34
2022-07-28T21:59:30.359Z,98458.28
2022-07-28T22:04:41.374Z,98457.47
2022-07-28T22:09:43.427Z,98455.28
2022-07-28T22:14:45.370Z,98456.53
2022-07-28T22:19:47.390Z,98456.19
2022-07-28T22:24:49.340Z,98476.69
2022-07-28T22:29:52.283Z,98482.41
2022-07-28T22:34:54.413Z,98482.09
2022-07-28T22:39:56.258Z,98478.88
2022-07-28T22:44:58.233Z,98478.50
2022-07-28T22:50:00.265Z,98479.53
2022-07-28T22:55:02.558Z,98480.34
2022-07-28T23:00:06.117Z,98474.72
2022-07-28T23:05:09.957Z,98477.78
2022-07-28T23:10:12.439Z,98475.44
2022-07-28T23:15:17.383Z,98492.38
2022-07-28T23:20:19.268Z,98494.28
2022-07-28T23:25:25.144Z,98491.69
2022-07-28T23:30:27.430Z,98492.94
2022-07-28T23:35:29.763Z,98500.25
2022-07-28T23:40:31.955Z,98495.63
2022-07-28T23:45:34.045Z,98491.22
2022-07-28T23:50:36.138Z,98491.09
2022-07-28T23:55:38.131Z,98478.56
